Weather observations for the past three days for
Atwood-Rawlins County City-County Airport
Imperial (Metric)
Date Time (cdt) Wind (mph) Vis. (mi.) Weather Sky Cond. Temperature (ºF) Relative Humidity Wind Chill (°F) Heat Index (°F) Pressure Precipitation (in)
Air Dwpt 6 hour altimeter (in) sea level (mb) 1 hr 3 hr 6 hr
Max. Min.
07 16:55 NW 9 10.00 Partly Cloudy SCT100 74.8 33.4 22% 29.88 0.0
07 16:35 NW 14 10.00 Overcast OVC100 72.7 33.1 23% 29.89 0.0
07 16:15 W 12 10.00 Mostly Cloudy BKN100 73.6 33.1 23% 29.89 0.0
07 15:55 W 8 G 17 10.00 Mostly Cloudy BKN100 74.3 32.2 21% 29.89 0.0
07 15:35 W 14 G 17 10.00 Fair CLR 74.8 32 21% 29.9 0.0
07 15:15 NW 14 G 22 10.00 Fair CLR 76.3 32 20% 77 29.91 0.0
07 14:55 NW 10 10.00 Fair CLR 73.9 31.5 21% 29.91 0.0
07 14:35 NW 12 10.00 Fair CLR 73.9 33.6 23% 29.92 0.0
07 14:15 NW 9 10.00 Fair CLR 74.3 32.9 22% 29.92 0.0
07 13:55 NW 8 10.00 Fair CLR 72.7 33.8 24% 29.93 0.0
07 13:35 W 9 G 16 10.00 Fair CLR 71.8 33.6 25% 29.93 0.0
07 13:15 NW 10 G 16 10.00 Fair CLR 71.4 33.6 25% 29.94 0.0
07 12:55 W 10 10.00 Fair CLR 70.7 34.2 70.7 38.3 26% 29.94 0.0
07 12:35 NW 13 G 20 10.00 Fair CLR 69.8 34.9 28% 29.95 0.0
07 12:15 NW 17 G 25 10.00 Fair CLR 69.4 34.5 28% 29.96 0.0
07 11:55 NW 16 G 23 10.00 Partly Cloudy SCT110 69.4 35.2 28% 29.96 0.0
07 11:35 NW 18 G 25 10.00 Partly Cloudy SCT110 68.9 34.5 28% 29.96 0.0
07 11:15 NW 20 G 26 10.00 Fair CLR 67.5 35.1 30% 29.96 0.0
07 10:55 NW 18 G 22 10.00 Fair CLR 65.8 34.9 32% 29.97 0.0
07 10:35 W 18 G 24 10.00 Fair CLR 64.4 34.2 33% 29.97 0.0
07 10:15 W 17 G 24 10.00 Fair CLR 62.2 33.3 34% 29.97 0.0
07 09:55 W 18 G 24 10.00 Fair CLR 60.3 35.8 40% 29.97 0.0
07 09:35 W 13 G 20 10.00 Fair CLR 57 36.1 46% 29.97 0.0
07 09:15 W 12 10.00 Fair CLR 54.1 37 53% 29.97 0.0
07 08:55 W 14 10.00 Fair CLR 51.1 37 59% 29.98 0.0
07 08:35 W 12 10.00 Fair CLR 48.4 37.4 66% 44 29.98 0.0
07 08:15 W 8 10.00 Fair CLR 45 37 74% 41 29.98 0.0
07 07:55 W 6 10.00 Fair CLR 42.1 35.6 78% 39 29.97 0.0
07 07:35 W 9 10.00 Fair CLR 40.6 34.9 80% 35 29.98 0.0
07 07:15 W 8 10.00 Fair CLR 39.2 34 82% 34 29.97 0.0
07 06:55 W 9 10.00 Fair CLR 38.3 33.6 39.2 36.3 83% 33 29.98 0.0
07 06:35 W 8 10.00 Fair CLR 37.9 33.3 83% 33 29.98 0.0
07 06:15 SW 8 10.00 Fair CLR 37.4 33.3 85% 32 29.98 0.0
07 05:55 SW 7 10.00 Fair CLR 38.3 33.8 84% 34 29.99 0.0
07 05:35 SW 9 10.00 Fair CLR 37.9 33.8 85% 32 30 0.0
07 05:15 SW 9 10.00 Fair CLR 37.8 34 86% 32 30.01 0.0
07 04:55 SW 6 10.00 Fair CLR 36.3 32.9 87% 32 30.02 0.0
07 04:35 SW 6 10.00 Fair CLR 37 33.1 86% 33 30.03 0.0
07 04:15 SW 6 10.00 Fair CLR 37.4 33.6 86% 33 30.03 0.0
07 03:55 SW 6 10.00 Fair CLR 37.9 33.6 84% 34 30.04 0.0
07 03:35 SW 7 10.00 Fair CLR 38.7 34.2 84% 34 30.04 0.0
07 03:15 W 8 10.00 Fair CLR 38.5 34.3 85% 33 30.06 0.0
07 02:55 SW 9 10.00 Fair CLR 39.2 34.7 84% 34 30.06 0.0
07 02:15 SW 9 10.00 Fair CLR 39 35.4 87% 33 30.08 0.0
07 01:55 SW 7 10.00 Fair CLR 38.5 35.1 88% 34 30.09 0.0
07 01:35 SW 5 10.00 Fair CLR 37 33.8 88% 34 30.1 0.0
07 01:15 SW 3 10.00 Fair CLR 37.9 35.1 89% 30.1 0.0
07 00:55 W 5 10.00 Fair CLR 37.4 34.5 50.4 36.9 89% 34 30.11 0.0
07 00:35 W 5 10.00 Fair CLR 37.4 34.7 90% 34 30.12 0.0
07 00:15 W 6 10.00 Fair CLR 38.3 35.1 88% 34 30.12 0.0
06 23:55 W 6 10.00 Fair CLR 39.2 35.4 86% 36 30.12 0.0
06 23:35 SW 7 10.00 Fair CLR 41 36.9 85% 37 30.12 0.0
06 23:15 SW 6 10.00 Fair CLR 40.5 36.9 87% 37 30.13 0.0
06 22:55 SW 5 10.00 Fair CLR 40.6 36.9 86% 38 30.13 0.0
06 22:35 SW 5 10.00 Fair CLR 40.3 36.5 86% 38 30.13 0.0
06 22:15 SW 6 10.00 Fair CLR 41.7 37.2 84% 38 30.13 0.0
06 21:55 SW 6 10.00 Fair CLR 41.5 36.9 84% 38 30.13 0.0
06 21:35 W 5 10.00 Fair CLR 42.4 37 81% 40 30.13 0.0
06 21:15 SW 6 10.00 Fair CLR 43.2 37.4 80% 40 30.13 0.0
06 20:55 SW 6 10.00 Partly Cloudy SCT060 45 37.6 75% 42 30.13 0.0
06 20:35 SW 10 10.00 Mostly Cloudy BKN060 47.5 38.1 70% 43 30.13 0.0
06 20:15 SW 9 10.00 Partly Cloudy SCT060 48.6 38.5 68% 45 30.13 0.0
06 19:55 SW 6 10.00 Overcast OVC060 49.3 37.6 64% 47 30.13 0.0
06 19:35 SW 7 10.00 Overcast OVC060 49.5 37.8 64% 47 30.13 0.0
06 19:15 SW 9 10.00 Overcast OVC060 50.4 36.7 60% 30.13 0.0
06 18:55 SW 8 10.00 Overcast OVC060 50.2 36.9 52.2 45.1 60% 30.13 0.0
06 18:35 SW 8 10.00 Partly Cloudy SCT060 50.4 37.2 61% 30.13 0.0
06 18:15 W 7 10.00 Fair CLR 51.8 34.7 52% 30.13 0.0
06 17:55 W 8 10.00 Fair CLR 52 36 55% 30.13 0.0
06 17:35 W 6 10.00 Fair CLR 50.9 34.9 54% 30.13 0.0
06 17:15 Calm 10.00 Partly Cloudy SCT033 SCT045 50.7 37.2 60% 30.13 0.0
06 16:55 W 5 10.00 Partly Cloudy SCT043 50.7 36.5 58% 30.14 0.0
06 16:35 W 5 10.00 Partly Cloudy SCT070 50 36.3 60% 49 30.15 0.0
06 16:15 SW 3 10.00 Mostly Cloudy BKN070 BKN080 49.8 36.5 60% 30.15 0.0
06 15:55 SW 3 10.00 Mostly Cloudy BKN060 BKN080 49.3 36.9 62% 30.15 0.0
06 15:35 SW 3 10.00 Overcast OVC060 48.6 36.3 63% 30.16 0.0
06 15:15 Calm 10.00 Overcast SCT039 OVC060 47.8 37.6 68% 30.17 0.0
06 14:55 SE 5 10.00 Overcast SCT023 BKN044 OVC060 46.2 38.1 73% 45 30.17 0.0
06 14:35 S 3 7.00 Light Rain SCT017 BKN024 OVC038 45.5 38.1 76% 30.18 0.0
06 14:15 N 5 10.00 Overcast SCT023 BKN027 OVC033 46.8 38.5 73% 45 30.18 0.0
06 13:55 Calm 10.00 Light Rain SCT021 BKN031 OVC037 46.9 37 69% 30.18 0.0
06 13:35 SE 5 10.00 Light Drizzle BKN021 OVC031 46.4 36.9 70% 45 30.19 0.0
06 13:15 Calm 10.00 Overcast BKN019 OVC037 46.2 36 68% 30.19 0.0
06 12:55 W 3 10.00 Light Drizzle BKN019 OVC039 46 37.2 46 39.2 71% 30.2 0.0
06 12:35 Calm 10.00 Overcast OVC039 45.7 37.6 73% 30.19 0.0
06 12:15 Calm 10.00 Light Snow SCT017 BKN026 OVC035 44.4 36.5 74% 30.2 0.0
06 11:55 SW 3 10.00 Light Rain SCT017 OVC026 43.7 36 74% 30.2 0.0
06 11:35 S 3 10.00 Rain SCT019 OVC026 43.7 35.6 73% 30.2 0.0
06 11:15 Calm 10.00 Overcast BKN019 OVC032 43.9 35.1 71% 30.19 0.0
06 10:55 SW 3 10.00 Overcast BKN017 BKN031 OVC080 44.2 36.3 74% 30.19 0.0
06 10:35 Calm 10.00 Overcast BKN024 BKN032 OVC080 44.4 36.3 73% 30.17 0.0
06 10:15 Calm 10.00 Overcast SCT016 OVC024 43.3 36.3 76% 30.18 0.0
06 09:55 Calm 10.00 Overcast OVC017 42.6 36.5 79% 30.17 0.0
06 09:35 Calm 10.00 Overcast OVC017 41.9 36.5 81% 30.17 0.0
06 09:15 W 3 10.00 Overcast SCT009 OVC017 41.4 36.7 84% 30.17 0.0
06 08:55 Calm 10.00 Overcast SCT007 OVC017 41 36.5 84% 30.17 0.0
06 08:35 Calm 10.00 Overcast SCT007 OVC019 40.6 36.5 85% 30.16 0.0
06 08:15 Calm 10.00 Light Drizzle BKN019 OVC036 40.3 36.9 88% 30.16 0.0
06 07:55 Calm 10.00 Light Snow SCT019 OVC036 39.7 36.7 89% 30.15 0.0
06 07:35 Calm 10.00 Drizzle SCT021 BKN033 OVC038 39.4 36.9 91% 30.15 0.0
06 07:15 Calm 10.00 Drizzle OVC021 39.2 36.7 91% 30.14 0.0
06 06:55 Calm 10.00 Drizzle OVC021 39.2 36.7 40.6 39.2 91% 30.13 0.0
06 06:35 SW 3 10.00 Light Rain OVC021 39.2 36.5 90% 30.13 0.0
06 05:55 W 3 10.00 Light Drizzle OVC019 39.2 36.5 90% 30.12 0.0
06 05:35 W 3 7.00 Light Snow BKN019 OVC028 39.2 36 88% 30.11 0.0
06 05:15 W 3 10.00 Snow BKN024 BKN030 OVC035 39.4 36 88% 30.11 0.0
06 04:55 W 3 10.00 Light Snow SCT012 SCT021 OVC026 39.6 35.6 86% 30.1 0.0
06 04:35 Calm 10.00 Rain OVC016 39.6 35.2 85% 30.1 0.0
06 04:15 N 3 10.00 Light Rain OVC018 40.1 36.3 86% 30.1 0.0
06 03:55 Calm 10.00 Drizzle BKN020 OVC030 40.1 36.5 87% 30.09 0.0
06 03:35 Calm 10.00 Unknown Precip OVC032 40.1 36.9 88% 30.09 0.0
06 03:15 Calm 10.00 Light Snow SCT016 OVC030 40.3 37 88% 30.09 0.0
06 02:55 NW 3 10.00 Light Drizzle OVC016 40.1 36.9 88% 30.09 0.0
06 02:35 NW 3 10.00 Light Drizzle OVC016 40.1 36.7 88% 30.09 0.0
06 02:15 Calm 10.00 Light Snow OVC016 40.3 36.7 87% 30.09 0.0
06 01:55 Calm 10.00 Drizzle OVC016 40.1 36.5 87% 30.1 0.0
06 01:35 N 3 10.00 Drizzle SCT007 OVC014 40.3 36.9 88% 30.1 0.0
06 01:15 Calm 10.00 Light Snow BKN007 BKN012 OVC023 40.6 37.4 88% 30.1 0.0
06 00:55 Calm 10.00 Unknown Precip SCT007 BKN021 OVC026 40.6 37.4 44.8 40.6 88% 30.09 0.0
06 00:15 NE 3 10.00 Light Drizzle SCT007 OVC018 41 37.4 87% 30.08 0.0
05 23:55 Calm 10.00 Light Rain OVC018 41.4 37.4 86% 30.08 0.0
05 23:35 N 5 10.00 Light Rain OVC018 41.4 37.6 86% 39 30.08 0.0
05 23:15 N 5 10.00 Light Rain BKN018 OVC023 41.9 37.9 86% 40 30.08 0.0
05 22:55 NE 5 10.00 Light Snow BKN021 BKN027 41.7 37.9 87% 39 30.08 0.0
05 22:35 N 3 10.00 Light Snow OVC026 42.1 38.5 87% 30.08 0.0
05 22:15 NE 3 10.00 Light Snow OVC033 42.1 38.3 87% 30.06 0.0
05 21:55 E 3 10.00 Light Snow BKN020 OVC031 41.9 38.1 87% 30.06 0.0
05 21:35 NE 6 10.00 Light Rain BKN021 BKN026 42.1 38.5 87% 39 30.06 0.0
05 21:15 NE 3 10.00 Light Rain OVC025 42.4 38.5 86% 30.05 0.0
05 20:55 NE 6 10.00 Light Rain OVC025 42.8 38.7 85% 40 30.04 0.0
05 20:35 NE 6 10.00 Rain SCT009 BKN025 OVC031 43 39.2 87% 40 30.02 0.0
05 20:15 NE 7 10.00 Light Rain SCT007 BKN020 OVC031 44.2 40.6 87% 41 30.02 0.0
05 19:55 E 3 7.00 Rain SCT008 BKN017 OVC028 44.6 40.5 85% 30.01 0.0
05 19:35 NE 6 10.00 Rain SCT008 BKN012 OVC026 44.6 40.6 86% 42 30.01 0.0
05 19:15 Calm 10.00 Drizzle BKN014 BKN023 OVC033 44.6 40.6 86% 30 0.0
05 18:55 E 5 7.00 Light Rain SCT015 BKN020 OVC026 44.6 40.3 46 44.6 85% 43 30 0.0
05 18:35 E 6 10.00 Rain SCT023 OVC029 45 40.3 84% 42 29.99 0.0
05 18:15 E 6 10.00 Snow SCT012 SCT019 OVC029 45 40.3 84% 42 29.99 0.0
05 17:55 E 8 10.00 Light Drizzle SCT011 SCT018 OVC025 45 40.6 85% 41 29.99 0.0
05 17:35 E 9 10.00 Light Rain SCT010 SCT016 OVC023 45 41 86% 41 29.99 0.0
05 17:15 E 10 5.00 Light Rain SCT010 BKN023 OVC028 45.1 41.2 86% 40 29.99 0.0
05 16:55 NE 8 10.00 Light Rain BKN025 OVC030 45.7 40.3 82% 42 30 0.0
05 16:35 NE 7 10.00 Light Rain SCT013 OVC023 45.9 40.8 83% 43 30 0.0
05 16:15 N 7 10.00 Rain SCT015 BKN023 OVC028 45.7 39.9 80% 43 30.01 0.0
05 15:55 Calm 10.00 Light Rain SCT015 OVC023 45.9 39.2 78% 30.01 0.0
05 15:35 NE 3 10.00 Light Rain BKN015 OVC021 45.9 39.6 79% 30.01 0.0
05 15:15 N 6 10.00 Light Rain OVC018 46 39.4 78% 44 30.01 0.0
05 14:35 Calm 10.00 Light Rain OVC022 45.9 38.3 75% 30.03 0.0
05 14:15 Calm 10.00 Light Drizzle OVC026 45.3 37.4 74% 30.03 0.0
05 13:55 Calm 10.00 Light Rain OVC026 45 37.2 74% 30.03 0.0
05 13:35 Calm 10.00 Light Rain OVC028 45 37.4 75% 30.04 0.0
05 13:15 Calm 10.00 Light Rain OVC030 44.6 37.4 76% 30.05 0.0
05 12:55 Calm 10.00 Light Rain OVC028 44.6 37 46.2 43.9 75% 30.05 0.0
05 12:35 Calm 10.00 Light Rain BKN028 BKN033 44.6 37 75% 30.05 0.0
05 12:15 Calm 10.00 Light Rain OVC028 44.6 38.3 79% 30.06 0.0
05 11:55 SE 3 7.00 Snow SCT023 OVC030 44.6 38.3 79% 30.06 0.0
05 11:35 E 5 10.00 Rain SCT014 BKN019 OVC030 44.8 39 80% 43 30.04 0.0
05 11:15 NE 7 10.00 Light Rain BKN019 BKN029 OVC044 46 39.2 77% 43 30.04 0.0
05 10:55 NE 7 10.00 Light Drizzle SCT017 BKN030 OVC065 46.2 39.2 77% 43 30.04 0.0
05 10:35 N 7 10.00 Light Drizzle SCT020 BKN030 OVC065 45.7 38.5 76% 43 30.03 0.0
05 10:15 NE 8 10.00 Light Rain SCT015 BKN028 OVC065 45.5 39.4 79% 42 30.03 0.0
05 09:55 NE 7 10.00 Light Rain BKN031 OVC035 45.1 39.9 82% 42 30.03 0.0
05 09:35 N 7 10.00 Light Rain OVC029 44.6 39.7 83% 41 30.03 0.0
05 09:15 N 7 10.00 Light Rain BKN029 OVC035 44.6 39.6 83% 41 30.03 0.0
05 08:55 N 6 10.00 Drizzle OVC032 44.6 39.2 81% 42 30.02 0.0
05 08:35 N 5 10.00 Drizzle BKN032 OVC042 44.6 38.8 80% 43 30.01 0.0
05 08:15 N 7 10.00 Rain SCT034 BKN044 OVC050 44.1 38.7 81% 41 30.01 0.0
05 07:55 N 7 10.00 Light Rain SCT029 SCT040 OVC046 44.1 38.5 81% 41 29.99 0.0
05 07:35 N 10 10.00 Rain BKN029 BKN040 OVC046 44.1 38.7 81% 39 29.98 0.0
05 07:15 N 12 10.00 Light Rain SCT031 BKN040 OVC050 44.8 38.1 78% 40 29.97 0.0
05 06:55 N 10 10.00 Light Rain OVC050 45.5 37.9 52.2 45.5 75% 41 29.95 0.0
05 06:35 N 10 10.00 Overcast OVC050 45.7 38.3 76% 41 29.95 0.0
05 06:15 N 9 10.00 Overcast OVC050 46 38.5 75% 42 29.94 0.0
05 05:55 N 8 10.00 Overcast OVC050 46.4 38.8 75% 43 29.93 0.0
05 05:35 N 6 10.00 Overcast OVC050 46.2 39.6 78% 44 29.93 0.0
05 05:15 N 5 10.00 Light Rain OVC050 45.9 40.3 81% 44 29.93 0.0
05 04:55 N 6 10.00 Light Snow OVC050 45.9 40.1 80% 43 29.93 0.0
05 04:35 N 6 10.00 Light Rain OVC060 45.5 39.6 80% 43 29.93 0.0
05 04:15 NE 6 10.00 Light Snow SCT041 OVC060 45.7 39.9 80% 43 29.93 0.0
05 03:55 NE 8 10.00 Light Snow SCT024 SCT032 OVC060 45.7 39.9 80% 42 29.92 0.0
05 03:35 NE 9 10.00 Rain SCT025 SCT031 BKN037 45.9 40.3 81% 42 29.92 0.0
05 03:15 NE 7 10.00 Light Snow SCT027 BKN035 BKN060 46.8 42.6 86% 44 29.93 0.0
05 02:55 NE 7 10.00 Rain SCT027 BKN036 BKN049 47.1 42.6 84% 44 29.93 0.0
05 02:35 Calm 10.00 Light Snow SCT034 BKN041 OVC060 47.5 41.9 81% 29.94 0.0
05 02:15 E 6 10.00 Rain SCT045 BKN065 OVC075 48.7 40.6 74% 47 29.94 0.0
05 01:55 NE 8 10.00 Overcast OVC075 50.2 38.3 64% 29.93 0.0
05 01:35 NE 15 10.00 Mostly Cloudy SCT090 BKN110 50.5 37.9 62% 29.91 0.0
05 01:15 NE 20 10.00 Partly Cloudy SCT110 51.3 38.7 62% 29.9 0.0
05 00:55 NE 20 G 24 10.00 Fair CLR 52.7 37.8 72.3 52.7 57% 29.89 0.0
05 00:35 NE 22 G 26 10.00 Partly Cloudy and Breezy SCT100 SCT120 53.6 36.9 53% 29.86 0.0
05 00:15 NE 21 G 28 10.00 Partly Cloudy and Breezy SCT090 54.5 35.8 49% 29.85 0.0
04 23:55 NE 20 G 31 10.00 Partly Cloudy SCT090 55.4 35.6 47% 29.86 0.0
04 23:35 NE 23 G 29 10.00 Fair and Breezy CLR 56.7 34.9 44% 29.85 0.0
04 23:15 NE 23 G 29 10.00 Fair and Breezy CLR 57.4 34.7 43% 29.84 0.0
04 22:55 NE 23 G 30 10.00 Fair and Breezy CLR 57.7 34.7 42% 29.85 0.0
04 22:35 NE 26 G 32 10.00 Fair and Windy CLR 58.8 34.7 40% 29.84 0.0
04 22:15 NE 26 G 36 10.00 Partly Cloudy and Windy SCT048 61.7 33.4 35% 29.83 0.0
04 21:55 NE 23 G 30 10.00 Partly Cloudy and Breezy SCT085 63.7 32.4 31% 29.81 0.0
04 21:35 NE 16 G 24 10.00 Partly Cloudy SCT085 SCT110 64.2 32 30% 29.81 0.0
04 21:15 NE 16 G 24 10.00 Fair CLR 64.8 32 29% 29.81 0.0
04 20:55 NE 25 G 31 10.00 Partly Cloudy and Breezy SCT080 65.8 32 28% 29.77 0.0
04 20:35 NE 18 10.00 Mostly Cloudy BKN090 67.1 31.6 27% 29.8 0.0
04 20:15 NE 18 G 28 10.00 Mostly Cloudy BKN110 68 31.8 26% 29.79 0.0
04 19:55 NE 20 G 29 10.00 Partly Cloudy SCT120 69.1 32 25% 29.75 0.0
04 19:35 NE 26 G 35 10.00 Partly Cloudy and Windy SCT110 69.8 32.4 25% 29.74 0.0
04 19:15 NE 24 G 31 10.00 Fair and Breezy CLR 71.6 33.4 25% 29.73 0.0
04 18:55 NE 22 G 31 10.00 Fair and Breezy CLR 72.7 34 85.5 72.7 24% 29.72 0.0
04 18:35 NE 23 G 32 10.00 Partly Cloudy and Breezy SCT090 73.8 34.2 24% 29.72 0.0
04 18:15 NE 25 G 32 10.00 Partly Cloudy and Breezy SCT090 SCT110 74.8 34 22% 29.7 0.0
04 17:55 NE 24 G 30 10.00 Fair and Breezy CLR 77.7 34 20% 77 29.68 0.0
04 17:35 NE 25 G 33 10.00 Fair and Breezy CLR 79.9 34 19% 78 29.67 0.0
04 17:15 NE 24 G 33 10.00 Fair and Breezy CLR 81.9 32.7 17% 80 29.66 0.0
Date Time (cdt) Wind (mph) Vis. (mi.) Weather Sky Cond. Air Dwpt Max. Min. Relative Humidity Wind Chill (°F) Heat Index (°F) altimeter (in) sea level (mb) 1 hr 3 hr 6 hr
6 hour
Temperature (ºF) Pressure Precipitation (in)